Franklin, Ohio
Current Conditions -  °F | °C
As of 1:53 PM on Thursday 27 Nov 2014 (Local Time) from KMGY Reporting Station
Overcast Overcast  
Wind Chill: 22°   Ceiling: 2500
Heat Index: 32°   Visibility: 10mi
Dew Point: 22°   Wind: 14mph
Humidity: 66%   Direction: 280°W
Pressure: 30.24"   Gusts: NA
Location:  39.54°N, 84.29°W
Report Text: KMGY 271853Z AUTO 28012KT 10SM BKN025 OVC032 00/M06 A3024 RMK AO2 SLP251 T00001056
Loading
Personal Weather Stations






























Interactive Weather Map New forecast layout! Learn more

10-Day Weather Forecast

Advertisements
Track Severe Weather on mobile